createdAt,value
2018-05-29T00:01:02.304Z,101453.13
2018-05-29T00:04:05.572Z,101450.10
2018-05-29T00:07:07.713Z,101436.70
2018-05-29T00:10:09.819Z,101436.58
2018-05-29T00:13:11.897Z,101438.13
2018-05-29T00:16:14.025Z,101430.69
2018-05-29T00:19:16.007Z,101427.28
2018-05-29T00:22:18.092Z,101425.10
2018-05-29T00:25:20.166Z,101420.76
2018-05-29T00:28:22.238Z,101418.84
2018-05-29T00:31:24.324Z,101413.78
2018-05-29T00:34:26.387Z,101417.63
2018-05-29T00:37:28.462Z,101416.56
2018-05-29T00:40:32.553Z,101416.11
2018-05-29T00:43:35.721Z,101414.66
2018-05-29T00:46:37.759Z,101424.21
2018-05-29T00:49:39.989Z,101417.95
2018-05-29T00:52:42.105Z,101413.17
2018-05-29T00:55:44.270Z,101410.20
2018-05-29T00:58:46.431Z,101406.28
2018-05-29T01:01:48.443Z,101401.83
2018-05-29T01:04:50.645Z,101401.96
2018-05-29T01:08:05.161Z,101403.77
2018-05-29T01:11:07.325Z,101405.95
2018-05-29T01:14:09.380Z,101412.58
2018-05-29T01:17:11.533Z,101411.63
2018-05-29T01:20:13.601Z,101409.66
2018-05-29T01:23:15.664Z,101415.70
2018-05-29T01:26:17.748Z,101421.99
2018-05-29T01:29:19.810Z,101423.06
2018-05-29T01:32:21.863Z,101424.38
2018-05-29T01:35:24.228Z,101431.79
2018-05-29T01:38:26.308Z,101436.90
2018-05-29T01:41:28.408Z,101445.86
2018-05-29T01:44:30.555Z,101455.85
2018-05-29T01:47:32.635Z,101470.38
2018-05-29T01:50:35.811Z,101488.07
2018-05-29T01:53:37.998Z,101487.06
2018-05-29T01:56:40.071Z,101464.75
2018-05-29T01:59:42.133Z,101485.60
2018-05-29T02:02:44.188Z,101507.75
2018-05-29T02:05:46.255Z,101502.25
2018-05-29T02:08:48.318Z,101482.42
2018-05-29T02:11:50.247Z,101479.14
2018-05-29T02:14:53.278Z,101502.03
2018-05-29T02:17:55.421Z,101494.26
2018-05-29T02:20:57.460Z,101481.40
2018-05-29T02:23:59.523Z,101487.49
2018-05-29T02:27:01.693Z,101493.25
2018-05-29T02:30:04.742Z,101486.38
2018-05-29T02:33:06.982Z,101493.12
2018-05-29T02:36:09.405Z,101494.55
2018-05-29T02:39:11.528Z,101483.19
2018-05-29T02:42:13.659Z,101494.59
2018-05-29T02:45:15.752Z,101498.84
2018-05-29T02:48:17.776Z,101493.19
2018-05-29T02:51:19.852Z,101491.51
2018-05-29T02:54:21.930Z,101497.44
2018-05-29T02:57:24.094Z,101492.70
2018-05-29T03:00:26.156Z,101495.39
2018-05-29T03:03:28.239Z,101502.45
2018-05-29T03:06:30.332Z,101497.73
2018-05-29T03:09:32.611Z,101511.54
2018-05-29T03:12:35.507Z,101510.28
2018-05-29T03:15:37.541Z,101511.73
2018-05-29T03:18:39.624Z,101507.99
2018-05-29T03:21:41.694Z,101511.28
2018-05-29T03:24:43.745Z,101516.62
2018-05-29T03:27:45.812Z,101517.55
2018-05-29T03:30:47.762Z,101521.70
2018-05-29T03:33:49.838Z,101526.05
2018-05-29T03:36:51.911Z,101527.13
2018-05-29T03:39:53.986Z,101525.78
2018-05-29T03:42:56.038Z,101527.21
2018-05-29T03:46:07.015Z,101527.83
2018-05-29T03:49:09.067Z,101527.46
2018-05-29T03:52:11.032Z,101520.52
2018-05-29T03:55:13.100Z,101521.52
2018-05-29T03:58:15.244Z,101522.03
2018-05-29T04:01:17.303Z,101531.97
2018-05-29T04:04:19.449Z,101539.83
2018-05-29T04:07:21.478Z,101544.18
2018-05-29T04:10:23.594Z,101544.64
2018-05-29T04:13:25.662Z,101542.29
2018-05-29T04:16:27.677Z,101545.02
2018-05-29T04:19:29.784Z,101543.37
2018-05-29T04:22:31.864Z,101549.00
2018-05-29T04:25:33.894Z,101539.35
2018-05-29T04:28:36.709Z,101537.29
2018-05-29T04:31:38.764Z,101546.53
2018-05-29T04:34:40.854Z,101555.36
2018-05-29T04:37:43.875Z,101552.25
2018-05-29T04:40:45.922Z,101548.56
2018-05-29T04:43:48.065Z,101548.31
2018-05-29T04:46:50.125Z,101547.38
2018-05-29T04:49:52.201Z,101541.86
2018-05-29T04:52:54.395Z,101555.87
2018-05-29T04:55:56.473Z,101555.46
2018-05-29T04:58:58.564Z,101550.55
2018-05-29T05:02:00.587Z,101542.98
2018-05-29T05:05:02.691Z,101542.55
2018-05-29T05:08:05.336Z,101538.66
2018-05-29T05:11:07.424Z,101541.23
2018-05-29T05:14:09.491Z,101533.43
2018-05-29T05:17:11.511Z,101532.24
2018-05-29T05:20:13.543Z,101525.95
2018-05-29T05:23:16.717Z,101528.34
2018-05-29T05:26:18.751Z,101533.23
2018-05-29T05:29:20.735Z,101538.24
2018-05-29T05:32:22.716Z,101530.56
2018-05-29T05:35:24.814Z,101530.38
2018-05-29T05:38:26.834Z,101533.35
2018-05-29T05:41:30.013Z,101534.03
2018-05-29T05:44:32.025Z,101525.43
2018-05-29T05:47:34.096Z,101528.30
2018-05-29T05:50:36.154Z,101525.64
2018-05-29T05:53:38.224Z,101527.34
2018-05-29T05:56:40.241Z,101526.81
2018-05-29T05:59:42.232Z,101533.35
2018-05-29T06:02:44.279Z,101535.08
2018-05-29T06:05:46.271Z,101532.82
2018-05-29T06:08:49.285Z,101535.04
2018-05-29T06:11:51.255Z,101539.94
2018-05-29T06:14:53.313Z,101540.35
2018-05-29T06:17:55.291Z,101545.98
2018-05-29T06:20:57.325Z,101542.75
2018-05-29T06:23:59.322Z,101539.21
2018-05-29T06:27:01.368Z,101543.48
2018-05-29T06:30:03.385Z,101549.36
2018-05-29T06:33:05.412Z,101549.90
2018-05-29T06:36:07.492Z,101549.80
2018-05-29T06:39:09.568Z,101558.20
2018-05-29T06:42:11.711Z,101556.28
2018-05-29T06:45:14.716Z,101553.63
2018-05-29T06:48:16.657Z,101554.58
2018-05-29T06:51:18.715Z,101558.86
2018-05-29T06:54:22.005Z,101556.62
2018-05-29T06:57:24.028Z,101558.81
2018-05-29T07:00:26.088Z,101564.26
2018-05-29T07:03:28.120Z,101563.32
2018-05-29T07:06:30.175Z,101560.28
2018-05-29T07:09:32.232Z,101561.71
2018-05-29T07:12:34.241Z,101561.04
2018-05-29T07:15:36.258Z,101563.97
2018-05-29T07:18:39.370Z,101565.42
2018-05-29T07:21:41.424Z,101560.60
2018-05-29T07:24:43.393Z,101562.70
2018-05-29T07:27:45.377Z,101562.51
2018-05-29T07:30:47.448Z,101556.13
2018-05-29T07:33:50.432Z,101555.69
2018-05-29T07:36:52.416Z,101556.16
2018-05-29T07:39:54.521Z,101555.13
2018-05-29T07:42:56.544Z,101553.57
2018-05-29T07:45:58.528Z,101547.18
2018-05-29T07:49:00.500Z,101545.54
2018-05-29T07:52:02.512Z,101543.89
2018-05-29T07:55:04.443Z,101546.17
2018-05-29T07:58:06.528Z,101550.05
2018-05-29T08:01:08.591Z,101539.98
2018-05-29T08:04:10.620Z,101540.36
2018-05-29T08:07:12.615Z,101546.80
2018-05-29T08:10:14.638Z,101539.01
2018-05-29T08:13:16.635Z,101537.80
2018-05-29T08:16:18.632Z,101537.47
2018-05-29T08:19:21.873Z,101537.78
2018-05-29T08:22:23.863Z,101545.67
2018-05-29T08:25:25.845Z,101544.43
2018-05-29T08:28:27.811Z,101543.05
2018-05-29T08:31:29.850Z,101539.95
2018-05-29T08:34:31.958Z,101538.85
2018-05-29T08:37:33.915Z,101538.25
2018-05-29T08:40:35.861Z,101533.26
2018-05-29T08:43:37.865Z,101533.25
2018-05-29T08:46:39.820Z,101534.53
2018-05-29T08:49:41.863Z,101543.77
2018-05-29T08:52:43.861Z,101542.36
2018-05-29T08:55:45.903Z,101547.63
2018-05-29T08:58:47.859Z,101545.87
2018-05-29T09:01:50.444Z,101556.31
2018-05-29T09:04:52.940Z,101546.82
2018-05-29T09:07:54.875Z,101550.04
2018-05-29T09:10:56.834Z,101549.96
2018-05-29T09:13:58.836Z,101551.64
2018-05-29T09:17:00.822Z,101549.31
2018-05-29T09:20:02.960Z,101553.93
2018-05-29T09:23:04.904Z,101560.51
2018-05-29T09:26:06.953Z,101557.60
2018-05-29T09:29:09.033Z,101555.78
2018-05-29T09:32:10.970Z,101549.94
2018-05-29T09:35:13.021Z,101547.62
2018-05-29T09:38:15.064Z,101543.94
2018-05-29T09:41:17.152Z,101556.04
2018-05-29T09:44:19.199Z,101549.35
2018-05-29T09:47:21.224Z,101550.04
2018-05-29T09:50:23.219Z,101550.42
2018-05-29T09:53:25.218Z,101546.02
2018-05-29T09:56:27.192Z,101550.78
2018-05-29T09:59:29.235Z,101548.21
2018-05-29T10:02:31.286Z,101541.85
2018-05-29T10:05:33.312Z,101543.11
2018-05-29T10:08:35.348Z,101545.05
2018-05-29T10:11:37.299Z,101542.58
2018-05-29T10:14:39.310Z,101538.66
2018-05-29T10:17:41.386Z,101544.14
2018-05-29T10:20:43.452Z,101543.92
2018-05-29T10:23:45.520Z,101546.05
2018-05-29T10:26:47.544Z,101540.74
2018-05-29T10:29:49.561Z,101530.22
2018-05-29T10:32:51.613Z,101524.00
2018-05-29T10:35:55.749Z,101526.17
2018-05-29T10:38:58.713Z,101539.13
2018-05-29T10:42:01.791Z,101538.97
2018-05-29T10:45:03.824Z,101544.39
2018-05-29T10:48:05.860Z,101546.07
2018-05-29T10:51:08.028Z,101550.12
2018-05-29T10:54:11.004Z,101547.27
2018-05-29T10:57:13.104Z,101556.84
2018-05-29T11:00:15.213Z,101558.00
2018-05-29T11:03:17.223Z,101558.36
2018-05-29T11:06:19.397Z,101555.76
2018-05-29T11:09:22.363Z,101553.03
2018-05-29T11:12:24.350Z,101554.34
2018-05-29T11:15:27.470Z,101555.70
2018-05-29T11:18:29.517Z,101556.39
2018-05-29T11:21:31.598Z,101559.54
2018-05-29T11:24:33.615Z,101558.29
2018-05-29T11:27:35.716Z,101559.49
2018-05-29T11:30:37.813Z,101557.28
2018-05-29T11:33:39.899Z,101558.24
2018-05-29T11:36:42.184Z,101562.26
2018-05-29T11:39:44.195Z,101571.48
2018-05-29T11:42:46.300Z,101566.88
2018-05-29T11:45:48.326Z,101565.77
2018-05-29T11:48:50.350Z,101566.39
2018-05-29T11:51:52.355Z,101564.86
2018-05-29T11:54:54.419Z,101569.53
2018-05-29T11:57:57.511Z,101564.86
2018-05-29T12:00:59.510Z,101566.16
2018-05-29T12:04:01.575Z,101561.26
2018-05-29T12:07:03.660Z,101561.89
2018-05-29T12:10:05.757Z,101566.42
2018-05-29T12:13:07.766Z,101561.85
2018-05-29T12:16:09.839Z,101563.14
2018-05-29T12:19:12.834Z,101558.34
2018-05-29T12:22:15.860Z,101555.53
2018-05-29T12:25:17.781Z,101551.87
2018-05-29T12:28:19.849Z,101554.05
2018-05-29T12:31:21.946Z,101558.21
2018-05-29T12:34:24.251Z,101555.46
2018-05-29T12:37:27.620Z,101558.65
2018-05-29T12:40:29.677Z,101552.37
2018-05-29T12:43:32.745Z,101550.66
2018-05-29T12:46:34.694Z,101545.14
2018-05-29T12:49:36.686Z,101540.72
2018-05-29T12:52:38.738Z,101547.23
2018-05-29T12:55:40.780Z,101543.15
2018-05-29T12:58:42.827Z,101549.50
2018-05-29T13:01:44.900Z,101542.58
2018-05-29T13:04:47.973Z,101536.89
2018-05-29T13:07:50.180Z,101534.89
2018-05-29T13:10:52.195Z,101531.59
2018-05-29T13:13:54.342Z,101524.98
2018-05-29T13:16:56.436Z,101524.02
2018-05-29T13:19:59.443Z,101512.52
2018-05-29T13:23:01.510Z,101515.03
2018-05-29T13:26:03.608Z,101520.74
2018-05-29T13:29:05.632Z,101524.69
2018-05-29T13:32:08.637Z,101526.62
2018-05-29T13:35:10.739Z,101529.27
2018-05-29T13:38:12.806Z,101534.76
2018-05-29T13:41:14.984Z,101532.06
2018-05-29T13:44:18.043Z,101526.44
2018-05-29T13:47:20.051Z,101520.78
2018-05-29T13:50:22.072Z,101519.78
2018-05-29T13:53:24.100Z,101511.37
2018-05-29T13:56:27.256Z,101509.53
2018-05-29T13:59:29.264Z,101504.36
2018-05-29T14:02:31.260Z,101496.91
2018-05-29T14:05:33.307Z,101495.07
2018-05-29T14:08:35.309Z,101497.38
2018-05-29T14:11:38.440Z,101494.60
2018-05-29T14:14:40.457Z,101494.47
2018-05-29T14:17:42.513Z,101486.32
2018-05-29T14:20:44.602Z,101493.01
2018-05-29T14:23:46.642Z,101495.86
2018-05-29T14:26:48.645Z,101494.04
2018-05-29T14:29:50.699Z,101490.64
2018-05-29T14:32:52.806Z,101497.79
2018-05-29T14:35:54.855Z,101504.56
2018-05-29T14:38:57.543Z,101497.97
2018-05-29T14:42:00.580Z,101487.42
2018-05-29T14:45:02.607Z,101491.27
2018-05-29T14:48:05.777Z,101492.36
2018-05-29T14:51:08.009Z,101493.54
2018-05-29T14:54:10.055Z,101486.60
2018-05-29T14:57:12.325Z,101484.23
2018-05-29T15:00:14.394Z,101478.06
2018-05-29T15:03:16.445Z,101471.06
2018-05-29T15:06:18.463Z,101470.41
2018-05-29T15:09:20.422Z,101463.36
2018-05-29T15:12:22.431Z,101464.25
2018-05-29T15:15:25.535Z,101456.56
2018-05-29T15:18:35.940Z,101454.85
2018-05-29T15:26:40.721Z,101461.26
2018-05-29T15:29:58.015Z,101465.40
2018-05-29T15:33:12.610Z,101462.34
2018-05-29T15:36:14.720Z,101470.64
2018-05-29T15:39:16.790Z,101470.63
2018-05-29T15:42:18.917Z,101460.52
2018-05-29T15:45:20.915Z,101456.52
2018-05-29T15:48:22.984Z,101452.93
2018-05-29T15:51:25.092Z,101450.28
2018-05-29T15:54:27.840Z,101440.13
2018-05-29T15:57:29.898Z,101445.99
2018-05-29T16:00:31.968Z,101443.69
2018-05-29T16:03:34.064Z,101441.85
2018-05-29T16:06:36.353Z,101436.44
2018-05-29T16:09:38.348Z,101434.12
2018-05-29T16:12:40.530Z,101439.24
2018-05-29T16:15:42.600Z,101425.48
2018-05-29T16:18:44.697Z,101426.15
2018-05-29T16:21:46.848Z,101434.68
2018-05-29T16:24:48.922Z,101423.26
2018-05-29T16:27:51.996Z,101409.76
2018-05-29T16:30:54.248Z,101413.00
2018-05-29T16:33:56.239Z,101407.81
2018-05-29T16:36:58.644Z,101403.85
2018-05-29T16:40:00.693Z,101400.77
2018-05-29T16:43:02.802Z,101400.71
2018-05-29T16:46:05.863Z,101396.30
2018-05-29T16:49:07.949Z,101391.65
2018-05-29T16:52:10.107Z,101398.00
2018-05-29T16:55:12.081Z,101408.39
2018-05-29T16:58:14.177Z,101410.22
2018-05-29T17:01:16.268Z,101405.00
2018-05-29T17:04:19.395Z,101403.85
2018-05-29T17:07:21.438Z,101410.12
2018-05-29T17:10:23.556Z,101412.39
2018-05-29T17:13:25.671Z,101413.63
2018-05-29T17:16:28.503Z,101419.92
2018-05-29T17:19:30.657Z,101430.03
2018-05-29T17:22:32.819Z,101438.71
2018-05-29T17:25:34.883Z,101435.49
2018-05-29T17:28:36.924Z,101441.22
2018-05-29T17:31:38.912Z,101443.85
2018-05-29T17:34:41.074Z,101444.83
2018-05-29T17:37:43.162Z,101446.00
2018-05-29T17:40:45.279Z,101440.75
2018-05-29T17:43:47.300Z,101440.82
2018-05-29T17:46:49.556Z,101443.07
2018-05-29T17:49:51.660Z,101448.11
2018-05-29T17:52:53.708Z,101446.26
2018-05-29T17:55:55.756Z,101453.41
2018-05-29T17:58:58.788Z,101459.45
2018-05-29T18:02:00.956Z,101469.49
2018-05-29T18:05:03.141Z,101465.53
2018-05-29T18:08:05.397Z,101467.62
2018-05-29T18:11:07.480Z,101468.59
2018-05-29T18:14:09.535Z,101465.40
2018-05-29T18:17:11.579Z,101461.81
2018-05-29T18:20:13.532Z,101464.67
2018-05-29T18:23:15.644Z,101460.82
2018-05-29T18:26:19.848Z,101466.19
2018-05-29T18:29:21.903Z,101478.11
2018-05-29T18:32:25.030Z,101482.68
2018-05-29T18:35:27.787Z,101489.67
2018-05-29T18:38:29.872Z,101489.82
2018-05-29T18:41:31.960Z,101490.26
2018-05-29T18:44:35.133Z,101482.41
2018-05-29T18:47:37.186Z,101467.29
2018-05-29T18:50:39.243Z,101467.83
2018-05-29T18:53:41.478Z,101474.97
2018-05-29T18:56:43.523Z,101471.93
2018-05-29T18:59:45.624Z,101477.02
2018-05-29T19:02:47.763Z,101479.25
2018-05-29T19:05:49.762Z,101482.57
2018-05-29T19:08:51.796Z,101479.38
2018-05-29T19:11:53.962Z,101480.51
2018-05-29T19:14:56.035Z,101476.63
2018-05-29T19:17:59.140Z,101476.90
2018-05-29T19:21:01.373Z,101474.58
2018-05-29T19:24:03.513Z,101475.28
2018-05-29T19:27:05.657Z,101474.12
2018-05-29T19:30:07.754Z,101471.73
2018-05-29T19:33:09.864Z,101470.97
2018-05-29T19:36:11.807Z,101484.24
2018-05-29T19:39:13.866Z,101490.35
2018-05-29T19:42:15.951Z,101493.61
2018-05-29T19:45:18.011Z,101499.23
2018-05-29T19:48:20.092Z,101500.89
2018-05-29T19:51:22.188Z,101497.42
2018-05-29T19:54:24.242Z,101502.18
2018-05-29T19:57:26.325Z,101505.81
2018-05-29T20:00:29.357Z,101516.32
2018-05-29T20:03:31.593Z,101520.21
2018-05-29T20:06:33.539Z,101524.70
2018-05-29T20:09:35.608Z,101520.56
2018-05-29T20:12:37.675Z,101517.38
2018-05-29T20:15:39.756Z,101518.43
2018-05-29T20:18:42.852Z,101520.44
2018-05-29T20:21:45.179Z,101523.98
2018-05-29T20:24:47.259Z,101526.97
2018-05-29T20:27:49.363Z,101525.47
2018-05-29T20:30:51.416Z,101522.61
2018-05-29T20:33:53.491Z,101521.69
2018-05-29T20:36:55.596Z,101521.47
2018-05-29T20:39:58.064Z,101523.59
2018-05-29T20:43:01.151Z,101521.22
2018-05-29T20:46:03.230Z,101520.25
2018-05-29T20:49:05.370Z,101515.01
2018-05-29T20:52:07.455Z,101510.56
2018-05-29T20:55:09.616Z,101510.19
2018-05-29T20:58:11.671Z,101514.35
2018-05-29T21:01:13.744Z,101521.15
2018-05-29T21:04:15.830Z,101518.01
2018-05-29T21:07:19.946Z,101521.16
2018-05-29T21:10:22.020Z,101531.13
2018-05-29T21:13:25.073Z,101529.48
2018-05-29T21:16:29.720Z,101521.43
2018-05-29T21:19:32.833Z,101524.49
2018-05-29T21:22:35.892Z,101521.77
2018-05-29T21:25:37.868Z,101518.10
2018-05-29T21:28:39.915Z,101519.86
2018-05-29T21:31:41.989Z,101523.44
2018-05-29T21:34:44.072Z,101517.12
2018-05-29T21:37:46.141Z,101520.69
2018-05-29T21:40:48.222Z,101518.15
2018-05-29T21:43:50.347Z,101515.78
2018-05-29T21:46:52.432Z,101514.38
2018-05-29T21:49:54.531Z,101520.09
2018-05-29T21:52:56.591Z,101520.92
2018-05-29T21:55:59.266Z,101529.77
2018-05-29T21:59:01.344Z,101531.14
2018-05-29T22:02:03.607Z,101538.40
2018-05-29T22:05:05.710Z,101534.97
2018-05-29T22:08:07.885Z,101533.58
2018-05-29T22:11:10.929Z,101535.36
2018-05-29T22:14:14.034Z,101540.48
2018-05-29T22:17:16.087Z,101549.12
2018-05-29T22:20:18.180Z,101550.02
2018-05-29T22:23:20.931Z,101557.79
2018-05-29T22:26:22.924Z,101549.19
2018-05-29T22:29:24.991Z,101549.71
2018-05-29T22:32:28.632Z,101548.49
2018-05-29T22:35:30.592Z,101543.84
2018-05-29T22:38:33.797Z,101549.32
2018-05-29T22:41:35.807Z,101548.52
2018-05-29T22:44:37.784Z,101550.47
2018-05-29T22:47:39.886Z,101553.94
2018-05-29T22:50:42.936Z,101559.26
2018-05-29T22:53:46.545Z,101569.13
2018-05-29T22:56:48.632Z,101574.01
2018-05-29T22:59:50.687Z,101569.99
2018-05-29T23:02:52.765Z,101571.60
2018-05-29T23:05:54.823Z,101574.58
2018-05-29T23:08:56.935Z,101576.84
2018-05-29T23:11:59.999Z,101570.86
2018-05-29T23:15:03.952Z,101574.97
2018-05-29T23:18:06.070Z,101572.70
2018-05-29T23:21:08.844Z,101571.59
2018-05-29T23:24:10.947Z,101570.71
2018-05-29T23:27:12.982Z,101567.52
2018-05-29T23:30:15.084Z,101579.29
2018-05-29T23:33:17.167Z,101585.90
2018-05-29T23:36:19.288Z,101589.43
2018-05-29T23:39:22.284Z,101597.33
2018-05-29T23:42:24.381Z,101600.62
2018-05-29T23:45:26.440Z,101599.31
2018-05-29T23:48:29.236Z,101600.76
2018-05-29T23:51:31.279Z,101601.19
2018-05-29T23:54:33.373Z,101603.94
2018-05-29T23:57:53.722Z,101604.80
